createdAt,value
2024-01-05T00:00:15.134Z,100215.53
2024-01-05T00:02:42.934Z,100221.56
2024-01-05T00:05:10.788Z,100217.34
2024-01-05T00:07:38.600Z,100207.09
2024-01-05T00:10:07.612Z,100208.09
2024-01-05T00:12:35.362Z,100209.78
2024-01-05T00:15:03.294Z,100204.59
2024-01-05T00:17:31.185Z,100199.53
2024-01-05T00:19:58.876Z,100189.31
2024-01-05T00:22:27.396Z,100197.75
2024-01-05T00:24:55.132Z,100193.53
2024-01-05T00:27:23.069Z,100174.22
2024-01-05T00:29:50.783Z,100170.63
2024-01-05T00:32:19.086Z,100154.66
2024-01-05T00:34:47.880Z,100156.41
2024-01-05T00:37:15.690Z,100148.69
2024-01-05T00:39:43.546Z,100146.13
2024-01-05T00:42:11.468Z,100134.03
2024-01-05T00:44:41.688Z,100121.47
2024-01-05T00:47:09.417Z,100121.34
2024-01-05T00:49:38.867Z,100119.63
2024-01-05T00:52:06.850Z,100112.84
2024-01-05T00:54:34.612Z,100115.88
2024-01-05T00:57:02.361Z,100111.19
2024-01-05T00:59:30.160Z,100101.84
2024-01-05T01:01:58.374Z,100109.41
2024-01-05T01:04:26.194Z,100107.66
2024-01-05T01:06:53.951Z,100097.44
2024-01-05T01:09:21.695Z,100093.16
2024-01-05T01:11:52.632Z,100093.25
2024-01-05T01:14:20.447Z,100087.25
2024-01-05T01:16:48.094Z,100087.28
2024-01-05T01:19:15.946Z,100074.41
2024-01-05T01:21:43.735Z,100079.59
2024-01-05T01:24:11.591Z,100061.63
2024-01-05T01:26:40.736Z,100071.84
2024-01-05T01:29:09.731Z,100080.38
2024-01-05T01:31:37.530Z,100071.13
2024-01-05T01:34:06.290Z,100067.63
2024-01-05T01:36:34.212Z,100064.53
2024-01-05T01:39:02.191Z,100060.31
2024-01-05T01:41:29.901Z,100053.44
2024-01-05T01:43:57.849Z,100058.50
2024-01-05T01:46:25.770Z,100048.84
2024-01-05T01:48:53.820Z,100048.31
2024-01-05T01:51:22.463Z,100052.53
2024-01-05T01:53:51.161Z,100039.75
2024-01-05T01:56:19.448Z,100044.84
2024-01-05T01:58:47.514Z,100039.09
2024-01-05T02:01:15.503Z,100038.09
2024-01-05T02:03:44.697Z,100049.19
2024-01-05T02:06:12.737Z,100035.78
2024-01-05T02:08:40.705Z,100043.31
2024-01-05T02:11:08.386Z,100038.97
2024-01-05T02:13:36.218Z,100027.91
2024-01-05T02:16:04.049Z,100025.38
2024-01-05T02:18:32.067Z,100016.91
2024-01-05T02:21:02.601Z,100016.97
2024-01-05T02:23:32.286Z,100010.25
2024-01-05T02:26:01.891Z,100007.78
2024-01-05T02:28:29.734Z,100002.66
2024-01-05T02:30:58.184Z,99996.00
2024-01-05T02:33:26.118Z,99985.72
2024-01-05T02:35:54.206Z,99979.88
2024-01-05T02:38:21.966Z,99982.50
2024-01-05T02:40:49.601Z,99982.47
2024-01-05T02:43:17.323Z,99968.88
2024-01-05T02:45:45.101Z,99971.50
2024-01-05T02:48:12.953Z,99968.25
2024-01-05T02:50:40.704Z,99958.81
2024-01-05T02:53:08.396Z,99953.72
2024-01-05T02:55:36.095Z,99953.16
2024-01-05T02:58:05.334Z,99951.38
2024-01-05T03:00:33.217Z,99946.28
2024-01-05T03:03:01.042Z,99951.38
2024-01-05T03:05:28.809Z,99937.69
2024-01-05T03:07:56.590Z,99926.63
2024-01-05T03:10:24.253Z,99925.84
2024-01-05T03:12:53.232Z,99922.47
2024-01-05T03:15:20.974Z,99920.88
2024-01-05T03:17:49.565Z,99919.31
2024-01-05T03:20:19.141Z,99913.50
2024-01-05T03:22:46.793Z,99911.09
2024-01-05T03:25:14.605Z,99902.50
2024-01-05T03:27:42.284Z,99899.09
2024-01-05T03:30:10.325Z,99895.75
2024-01-05T03:32:38.251Z,99896.63
2024-01-05T03:35:06.529Z,99885.53
2024-01-05T03:37:34.297Z,99887.22
2024-01-05T03:40:02.256Z,99873.53
2024-01-05T03:42:30.000Z,99876.13
2024-01-05T03:44:57.893Z,99869.34
2024-01-05T03:47:25.624Z,99866.78
2024-01-05T03:49:53.526Z,99865.94
2024-01-05T03:52:21.352Z,99871.91
2024-01-05T03:54:49.107Z,99853.09
2024-01-05T03:57:16.826Z,99854.78
2024-01-05T03:59:44.845Z,99855.59
2024-01-05T04:02:12.958Z,99853.06
2024-01-05T04:04:41.132Z,99848.81
2024-01-05T04:07:09.054Z,99847.91
2024-01-05T04:09:36.874Z,99841.97
2024-01-05T04:12:05.038Z,99830.91
2024-01-05T04:14:32.791Z,99829.31
2024-01-05T04:17:00.748Z,99823.28
2024-01-05T04:19:31.291Z,99824.13
2024-01-05T04:21:59.386Z,99823.25
2024-01-05T04:24:27.074Z,99818.13
2024-01-05T04:26:54.729Z,99815.63
2024-01-05T04:29:22.432Z,99812.19
2024-01-05T04:31:50.898Z,99821.59
2024-01-05T04:34:19.106Z,99813.84
2024-01-05T04:36:47.318Z,99820.69
2024-01-05T04:39:15.404Z,99817.19
2024-01-05T04:41:44.609Z,99805.25
2024-01-05T04:44:12.317Z,99805.28
2024-01-05T04:46:40.061Z,99799.34
2024-01-05T04:49:07.963Z,99779.69
2024-01-05T04:51:35.874Z,99784.88
2024-01-05T04:54:05.009Z,99775.56
2024-01-05T04:56:32.754Z,99781.50
2024-01-05T04:59:00.443Z,99774.75
2024-01-05T05:01:28.325Z,99768.91
2024-01-05T05:03:56.128Z,99768.06
2024-01-05T05:06:23.885Z,99763.81
2024-01-05T05:08:51.808Z,99769.75
2024-01-05T05:11:19.809Z,99764.75
2024-01-05T05:13:47.585Z,99756.16
2024-01-05T05:16:15.312Z,99751.28
2024-01-05T05:18:43.284Z,99752.78
2024-01-05T05:21:11.219Z,99743.38
2024-01-05T05:23:39.178Z,99753.69
2024-01-05T05:26:07.102Z,99762.16
2024-01-05T05:28:34.813Z,99743.50
2024-01-05T05:31:02.914Z,99747.72
2024-01-05T05:33:30.999Z,99731.63
2024-01-05T05:35:59.106Z,99741.81
2024-01-05T05:38:26.804Z,99752.19
2024-01-05T05:40:55.252Z,99743.66
2024-01-05T05:43:24.131Z,99727.38
2024-01-05T05:45:51.893Z,99723.97
2024-01-05T05:48:19.845Z,99716.38
2024-01-05T05:50:47.700Z,99717.22
2024-01-05T05:53:15.686Z,99716.44
2024-01-05T05:55:43.393Z,99723.19
2024-01-05T05:58:11.096Z,99719.78
2024-01-05T06:00:39.000Z,99718.94
2024-01-05T06:03:11.605Z,99719.81
2024-01-05T06:05:41.137Z,99724.09
2024-01-05T06:08:08.863Z,99726.66
2024-01-05T06:10:36.608Z,99719.03
2024-01-05T06:13:05.418Z,99722.38
2024-01-05T06:15:33.123Z,99721.56
2024-01-05T06:18:00.973Z,99723.25
2024-01-05T06:20:28.709Z,99724.16
2024-01-05T06:22:56.383Z,99718.94
2024-01-05T06:25:25.032Z,99722.38
2024-01-05T06:27:52.897Z,99724.13
2024-01-05T06:30:20.721Z,99721.59
2024-01-05T06:32:48.524Z,99713.91
2024-01-05T06:35:16.271Z,99716.47
2024-01-05T06:37:43.899Z,99713.88
2024-01-05T06:40:11.973Z,99715.56
2024-01-05T06:42:39.768Z,99719.09
2024-01-05T06:45:07.896Z,99720.75
2024-01-05T06:47:35.727Z,99711.34
2024-01-05T06:50:05.959Z,99709.66
2024-01-05T06:52:33.904Z,99706.25
2024-01-05T06:55:01.667Z,99704.56
2024-01-05T06:57:30.838Z,99696.16
2024-01-05T06:59:59.096Z,99701.25
2024-01-05T07:02:26.851Z,99701.25
2024-01-05T07:04:54.582Z,99702.13
2024-01-05T07:07:22.280Z,99691.81
2024-01-05T07:09:50.036Z,99703.75
2024-01-05T07:12:17.810Z,99692.66
2024-01-05T07:14:45.957Z,99692.75
2024-01-05T07:17:13.886Z,99685.00
2024-01-05T07:19:42.259Z,99689.28
2024-01-05T07:22:09.971Z,99683.38
2024-01-05T07:24:38.792Z,99677.38
2024-01-05T07:27:06.690Z,99680.06
2024-01-05T07:29:34.454Z,99678.22
2024-01-05T07:32:02.612Z,99679.91
2024-01-05T07:34:30.424Z,99683.31
2024-01-05T07:36:58.144Z,99679.25
2024-01-05T07:39:26.216Z,99674.94
2024-01-05T07:41:53.931Z,99669.81
2024-01-05T07:44:21.606Z,99677.44
2024-01-05T07:46:49.313Z,99672.25
2024-01-05T07:49:17.242Z,99680.06
2024-01-05T07:51:45.283Z,99674.06
2024-01-05T07:54:13.320Z,99681.81
2024-01-05T07:56:41.027Z,99678.34
2024-01-05T07:59:08.814Z,99680.97
2024-01-05T08:01:36.992Z,99680.88
2024-01-05T08:04:05.002Z,99679.06
2024-01-05T08:06:32.964Z,99678.28
2024-01-05T08:09:00.775Z,99673.25
2024-01-05T08:11:28.610Z,99678.28
2024-01-05T08:13:56.333Z,99677.41
2024-01-05T08:16:26.205Z,99679.06
2024-01-05T08:18:54.246Z,99678.22
2024-01-05T08:21:22.125Z,99678.19
2024-01-05T08:23:49.838Z,99671.44
2024-01-05T08:26:21.018Z,99673.19
2024-01-05T08:28:49.091Z,99674.03
2024-01-05T08:31:17.008Z,99669.69
2024-01-05T08:33:46.211Z,99671.34
2024-01-05T08:36:14.056Z,99671.31
2024-01-05T08:38:44.953Z,99666.19
2024-01-05T08:41:13.987Z,99669.03
2024-01-05T08:43:45.426Z,99674.06
2024-01-05T08:46:13.311Z,99673.09
2024-01-05T08:48:41.445Z,99675.75
2024-01-05T08:51:09.272Z,99672.25
2024-01-05T08:53:37.113Z,99680.16
2024-01-05T08:56:05.082Z,99675.78
2024-01-05T08:58:32.764Z,99683.53
2024-01-05T09:01:00.594Z,99675.88
2024-01-05T09:03:29.143Z,99679.34
2024-01-05T09:05:57.008Z,99687.81
2024-01-05T09:08:25.130Z,99693.78
2024-01-05T09:10:52.809Z,99684.38
2024-01-05T09:13:20.538Z,99683.41
2024-01-05T09:15:48.327Z,99685.16
2024-01-05T09:18:16.149Z,99695.47
2024-01-05T09:20:44.033Z,99692.91
2024-01-05T09:23:11.756Z,99686.22
2024-01-05T09:25:40.830Z,99693.00
2024-01-05T09:28:10.163Z,99696.47
2024-01-05T09:30:38.014Z,99693.06
2024-01-05T09:33:05.969Z,99697.28
2024-01-05T09:35:33.845Z,99700.69
2024-01-05T09:38:01.588Z,99707.41
2024-01-05T09:40:29.357Z,99704.03
2024-01-05T09:42:58.984Z,99710.00
2024-01-05T09:45:27.277Z,99706.72
2024-01-05T09:47:59.164Z,99712.66
2024-01-05T09:50:27.251Z,99714.31
2024-01-05T09:52:55.460Z,99719.28
2024-01-05T09:55:23.211Z,99712.25
2024-01-05T09:57:52.129Z,99725.13
2024-01-05T10:00:20.783Z,99715.75
2024-01-05T10:02:58.350Z,99717.50
2024-01-05T10:05:26.682Z,99718.28
2024-01-05T10:07:54.343Z,99719.28
2024-01-05T10:10:22.202Z,99720.16
2024-01-05T10:12:50.175Z,99714.34
2024-01-05T10:15:18.001Z,99718.63
2024-01-05T10:17:45.850Z,99712.53
2024-01-05T10:20:18.434Z,99717.56
2024-01-05T10:22:49.989Z,99718.28
2024-01-05T10:25:25.066Z,99720.09
2024-01-05T10:27:52.901Z,99715.97
2024-01-05T10:30:30.924Z,99712.28
2024-01-05T10:33:09.394Z,99712.84
2024-01-05T10:35:37.525Z,99711.28
2024-01-05T10:38:12.965Z,99720.00
2024-01-05T10:40:41.229Z,99714.72
2024-01-05T10:43:09.263Z,99715.44
2024-01-05T10:45:39.214Z,99719.63
2024-01-05T10:48:15.444Z,99713.16
2024-01-05T10:50:45.852Z,99713.72
2024-01-05T10:53:14.017Z,99710.97
2024-01-05T10:55:43.848Z,99713.81
2024-01-05T10:58:12.340Z,99711.94
2024-01-05T11:00:40.652Z,99704.69
2024-01-05T11:03:15.553Z,99703.56
2024-01-05T11:05:45.105Z,99706.25
2024-01-05T11:08:45.893Z,99703.47
2024-01-05T11:11:35.410Z,99701.81
2024-01-05T11:14:19.116Z,99699.66
2024-01-05T11:16:56.381Z,99696.34
2024-01-05T11:19:31.025Z,99698.16
2024-01-05T11:22:04.024Z,99703.31
2024-01-05T11:24:34.073Z,99700.72
2024-01-05T11:27:31.645Z,99706.72
2024-01-05T11:29:59.873Z,99701.59
2024-01-05T11:32:48.395Z,99701.59
2024-01-05T11:35:21.040Z,99701.41
2024-01-05T11:37:49.316Z,99698.19
2024-01-05T11:40:30.938Z,99701.59
2024-01-05T11:42:59.914Z,99689.47
2024-01-05T11:45:43.115Z,99700.66
2024-01-05T11:48:11.615Z,99690.09
2024-01-05T11:50:39.636Z,99684.13
2024-01-05T11:53:18.428Z,99687.75
2024-01-05T11:55:53.514Z,99693.59
2024-01-05T11:58:22.446Z,99687.53
2024-01-05T12:00:51.839Z,99690.28
2024-01-05T12:03:22.398Z,99679.97
2024-01-05T12:05:52.681Z,99680.03
2024-01-05T12:08:20.682Z,99675.78
2024-01-05T12:10:56.246Z,99672.56
2024-01-05T12:13:28.930Z,99669.75
2024-01-05T12:16:07.578Z,99663.00
2024-01-05T12:18:44.903Z,99661.72
2024-01-05T12:21:17.762Z,99663.19
2024-01-05T12:23:56.472Z,99663.81
2024-01-05T12:26:26.140Z,99667.22
2024-01-05T12:28:54.928Z,99664.16
2024-01-05T12:31:23.688Z,99659.53
2024-01-05T12:33:52.947Z,99658.63
2024-01-05T12:36:30.812Z,99659.44
2024-01-05T12:39:13.103Z,99657.75
2024-01-05T12:41:44.349Z,99646.84
2024-01-05T12:44:15.159Z,99657.91
2024-01-05T12:46:47.893Z,99659.44
2024-01-05T12:49:24.283Z,99653.41
2024-01-05T12:51:53.838Z,99654.50
2024-01-05T12:54:23.218Z,99649.28
2024-01-05T12:56:57.668Z,99651.72
2024-01-05T12:59:25.793Z,99656.09
2024-01-05T13:02:04.295Z,99652.94
2024-01-05T13:04:39.839Z,99656.88
2024-01-05T13:07:14.656Z,99655.19
2024-01-05T13:09:43.226Z,99658.56
2024-01-05T13:12:12.272Z,99656.94
2024-01-05T13:14:41.068Z,99656.97
2024-01-05T13:17:08.885Z,99650.13
2024-01-05T13:19:38.287Z,99659.56
2024-01-05T13:22:11.345Z,99657.06
2024-01-05T13:24:44.381Z,99656.59
2024-01-05T13:27:14.694Z,99649.56
2024-01-05T13:29:42.738Z,99646.25
2024-01-05T13:32:10.510Z,99643.50
2024-01-05T13:34:38.396Z,99647.91
2024-01-05T13:37:06.478Z,99654.47
2024-01-05T13:39:37.029Z,99650.63
2024-01-05T13:42:05.245Z,99643.91
2024-01-05T13:44:32.987Z,99653.75
2024-01-05T13:47:00.738Z,99656.59
2024-01-05T13:49:31.337Z,99657.56
2024-01-05T13:51:59.243Z,99658.22
2024-01-05T13:54:27.278Z,99655.47
2024-01-05T13:56:55.022Z,99661.72
2024-01-05T13:59:22.687Z,99646.34
2024-01-05T14:01:50.383Z,99656.47
2024-01-05T14:04:18.254Z,99648.78
2024-01-05T14:06:46.037Z,99658.09
2024-01-05T14:09:13.775Z,99651.41
2024-01-05T14:11:41.450Z,99656.38
2024-01-05T14:14:09.200Z,99661.53
2024-01-05T14:16:36.883Z,99661.75
2024-01-05T14:19:04.732Z,99659.75
2024-01-05T14:21:32.528Z,99654.50
2024-01-05T14:24:00.451Z,99663.03
2024-01-05T14:26:28.882Z,99651.97
2024-01-05T14:28:56.817Z,99664.72
2024-01-05T14:31:32.245Z,99658.81
2024-01-05T14:34:00.334Z,99652.94
2024-01-05T14:36:28.629Z,99663.03
2024-01-05T14:38:56.467Z,99666.41
2024-01-05T14:41:29.056Z,99669.75
2024-01-05T14:43:57.492Z,99661.22
2024-01-05T14:46:25.373Z,99662.91
2024-01-05T14:48:53.233Z,99659.66
2024-01-05T14:51:21.089Z,99668.06
2024-01-05T14:53:48.842Z,99664.75
2024-01-05T14:56:16.813Z,99665.50
2024-01-05T14:58:47.154Z,99661.19
2024-01-05T15:01:23.733Z,99667.16
2024-01-05T15:03:51.594Z,99669.69
2024-01-05T15:06:23.181Z,99667.16
2024-01-05T15:08:50.928Z,99667.09
2024-01-05T15:11:20.880Z,99667.09
2024-01-05T15:13:48.738Z,99670.50
2024-01-05T15:16:16.505Z,99667.09
2024-01-05T15:18:44.368Z,99676.47
2024-01-05T15:21:12.250Z,99677.34
2024-01-05T15:23:42.887Z,99683.31
2024-01-05T15:26:10.802Z,99683.31
2024-01-05T15:28:40.156Z,99687.75
2024-01-05T15:31:08.186Z,99691.97
2024-01-05T15:33:36.272Z,99692.75
2024-01-05T15:36:05.773Z,99691.19
2024-01-05T15:38:33.545Z,99695.38
2024-01-05T15:41:01.441Z,99698.06
2024-01-05T15:43:29.196Z,99694.84
2024-01-05T15:45:57.143Z,99706.75
2024-01-05T15:48:24.997Z,99720.34
2024-01-05T15:50:52.914Z,99712.88
2024-01-05T15:53:20.665Z,99714.22
2024-01-05T15:55:55.171Z,99722.88
2024-01-05T15:58:26.125Z,99722.91
2024-01-05T16:00:53.943Z,99732.25
2024-01-05T16:03:23.350Z,99728.88
2024-01-05T16:05:51.328Z,99734.78
2024-01-05T16:08:19.064Z,99732.38
2024-01-05T16:10:46.738Z,99743.44
2024-01-05T16:13:14.469Z,99749.16
2024-01-05T16:15:42.201Z,99750.88
2024-01-05T16:18:10.734Z,99761.88
2024-01-05T16:20:40.125Z,99757.00
2024-01-05T16:23:07.833Z,99769.09
2024-01-05T16:25:35.765Z,99770.78
2024-01-05T16:28:04.226Z,99772.53
2024-01-05T16:30:32.064Z,99771.69
2024-01-05T16:32:59.940Z,99782.78
2024-01-05T16:35:27.810Z,99790.44
2024-01-05T16:37:55.471Z,99788.78
2024-01-05T16:40:23.184Z,99796.53
2024-01-05T16:42:50.964Z,99796.50
2024-01-05T16:45:18.983Z,99800.78
2024-01-05T16:47:47.066Z,99806.72
2024-01-05T16:50:15.117Z,99816.13
2024-01-05T16:52:45.798Z,99820.41
2024-01-05T16:55:13.455Z,99825.41
2024-01-05T16:57:41.281Z,99833.88
2024-01-05T17:00:09.957Z,99836.50
2024-01-05T17:02:37.693Z,99842.41
2024-01-05T17:05:05.835Z,99850.19
2024-01-05T17:07:33.636Z,99856.16
2024-01-05T17:10:01.385Z,99853.69
2024-01-05T17:12:29.821Z,99868.25
2024-01-05T17:14:57.574Z,99875.94
2024-01-05T17:17:26.142Z,99882.72
2024-01-05T17:19:57.825Z,99881.94
2024-01-05T17:22:30.127Z,99890.41
2024-01-05T17:24:58.070Z,99896.38
2024-01-05T17:27:25.964Z,99904.06
2024-01-05T17:29:53.713Z,99905.88
2024-01-05T17:32:21.385Z,99911.16
2024-01-05T17:34:49.137Z,99938.81
2024-01-05T17:37:18.972Z,99919.56
2024-01-05T17:39:47.026Z,99929.97
2024-01-05T17:42:17.456Z,99934.13
2024-01-05T17:44:45.256Z,99943.72
2024-01-05T17:47:16.517Z,99944.56
2024-01-05T17:49:47.817Z,99946.19
2024-01-05T17:52:17.901Z,99953.06
2024-01-05T17:54:45.920Z,99958.25
2024-01-05T17:57:13.805Z,99956.50
2024-01-05T17:59:41.730Z,99969.34
2024-01-05T18:02:09.640Z,99968.38
2024-01-05T18:04:37.449Z,99976.16
2024-01-05T18:07:05.445Z,99975.31
2024-01-05T18:09:33.957Z,99982.19
2024-01-05T18:12:01.844Z,99977.91
2024-01-05T18:14:29.819Z,99976.16
2024-01-05T18:16:57.698Z,99983.88
2024-01-05T18:19:25.545Z,99992.50
2024-01-05T18:21:53.675Z,99996.78
2024-01-05T18:24:21.501Z,100002.75
2024-01-05T18:26:49.295Z,100010.50
2024-01-05T18:29:25.122Z,100001.03
2024-01-05T18:31:58.361Z,100008.72
2024-01-05T18:34:27.462Z,100009.63
2024-01-05T18:36:55.742Z,100008.75
2024-01-05T18:39:23.626Z,100023.34
2024-01-05T18:41:51.411Z,100022.47
2024-01-05T18:44:19.160Z,100034.44
2024-01-05T18:46:49.231Z,100038.66
2024-01-05T18:49:17.873Z,100043.00
2024-01-05T18:51:45.663Z,100043.88
2024-01-05T18:54:13.452Z,100051.59
2024-01-05T18:56:41.268Z,100055.03
2024-01-05T18:59:09.265Z,100063.56
2024-01-05T19:01:37.207Z,100069.53
2024-01-05T19:04:05.186Z,100075.53
2024-01-05T19:06:33.005Z,100078.16
2024-01-05T19:09:00.885Z,100075.56
2024-01-05T19:11:29.371Z,100079.84
2024-01-05T19:13:57.062Z,100081.53
2024-01-05T19:16:24.846Z,100091.00
2024-01-05T19:18:52.725Z,100093.56
2024-01-05T19:21:20.647Z,100097.81
2024-01-05T19:23:48.384Z,100105.50
2024-01-05T19:26:22.807Z,100113.25
2024-01-05T19:28:50.517Z,100125.16
2024-01-05T19:31:18.374Z,100127.72
2024-01-05T19:33:46.093Z,100130.34
2024-01-05T19:36:16.147Z,100126.09
2024-01-05T19:38:43.894Z,100130.34
2024-01-05T19:41:11.669Z,100134.66
2024-01-05T19:43:39.960Z,100138.09
2024-01-05T19:46:07.817Z,100145.75
2024-01-05T19:48:36.989Z,100149.19
2024-01-05T19:51:05.726Z,100155.16
2024-01-05T19:53:33.568Z,100159.47
2024-01-05T19:56:01.818Z,100164.56
2024-01-05T19:58:29.466Z,100169.56
2024-01-05T20:00:57.384Z,100168.00
2024-01-05T20:03:25.549Z,100170.50
2024-01-05T20:05:53.465Z,100173.06
2024-01-05T20:08:22.138Z,100171.44
2024-01-05T20:10:49.915Z,100179.16
2024-01-05T20:13:19.441Z,100178.34
2024-01-05T20:15:47.510Z,100190.34
2024-01-05T20:18:18.558Z,100192.06
2024-01-05T20:20:46.813Z,100201.41
2024-01-05T20:23:15.242Z,100195.44
2024-01-05T20:25:42.999Z,100213.28
2024-01-05T20:28:10.834Z,100212.53
2024-01-05T20:30:39.289Z,100224.59
2024-01-05T20:33:07.269Z,100235.66
2024-01-05T20:35:35.203Z,100232.28
2024-01-05T20:38:04.345Z,100242.59
2024-01-05T20:40:32.111Z,100238.28
2024-01-05T20:43:00.089Z,100238.28
2024-01-05T20:45:27.826Z,100247.63
2024-01-05T20:47:55.643Z,100250.25
2024-01-05T20:50:23.739Z,100250.28
2024-01-05T20:52:51.702Z,100253.63
2024-01-05T20:55:20.181Z,100260.34
2024-01-05T20:57:47.961Z,100257.13
2024-01-05T21:00:16.058Z,100258.03
2024-01-05T21:02:43.728Z,100261.50
2024-01-05T21:05:11.964Z,100262.34
2024-01-05T21:07:39.731Z,100270.00
2024-01-05T21:10:08.644Z,100267.31
2024-01-05T21:12:36.647Z,100264.84
2024-01-05T21:15:04.869Z,100267.50
2024-01-05T21:17:32.556Z,100272.50
2024-01-05T21:20:00.332Z,100278.13
2024-01-05T21:22:28.143Z,100281.53
2024-01-05T21:24:56.148Z,100281.47
2024-01-05T21:27:24.936Z,100276.63
2024-01-05T21:29:53.995Z,100286.16
2024-01-05T21:32:25.650Z,100276.88
2024-01-05T21:34:56.518Z,100282.00
2024-01-05T21:37:24.576Z,100287.19
2024-01-05T21:39:52.468Z,100293.22
2024-01-05T21:42:20.219Z,100298.78
2024-01-05T21:44:48.280Z,100310.47
2024-01-05T21:47:16.201Z,100317.78
2024-01-05T21:49:43.994Z,100315.25
2024-01-05T21:52:11.948Z,100312.75
2024-01-05T21:54:39.734Z,100322.84
2024-01-05T21:57:07.590Z,100330.69
2024-01-05T21:59:35.314Z,100328.91
2024-01-05T22:02:03.074Z,100326.34
2024-01-05T22:04:30.894Z,100324.75
2024-01-05T22:07:02.055Z,100324.00
2024-01-05T22:09:30.015Z,100331.75
2024-01-05T22:11:57.968Z,100332.66
2024-01-05T22:14:27.307Z,100334.38
2024-01-05T22:16:56.024Z,100335.16
2024-01-05T22:19:24.073Z,100341.13
2024-01-05T22:21:52.167Z,100357.34
2024-01-05T22:24:20.132Z,100356.47
2024-01-05T22:26:47.911Z,100365.03
2024-01-05T22:29:15.629Z,100370.97
2024-01-05T22:31:45.194Z,100374.34
2024-01-05T22:34:13.354Z,100375.22
2024-01-05T22:36:40.969Z,100376.03
2024-01-05T22:39:08.736Z,100389.72
2024-01-05T22:41:36.475Z,100387.94
2024-01-05T22:44:04.817Z,100391.34
2024-01-05T22:46:32.661Z,100400.78
2024-01-05T22:49:00.459Z,100398.31
2024-01-05T22:51:29.860Z,100403.47
2024-01-05T22:53:57.783Z,100400.00
2024-01-05T22:56:25.463Z,100406.97
2024-01-05T22:58:53.280Z,100411.97
2024-01-05T23:01:22.493Z,100405.81
2024-01-05T23:03:52.919Z,100410.97
2024-01-05T23:06:21.312Z,100417.16
2024-01-05T23:08:48.971Z,100423.09
2024-01-05T23:11:16.620Z,100422.22
2024-01-05T23:13:45.118Z,100422.13
2024-01-05T23:16:13.001Z,100426.56
2024-01-05T23:18:40.844Z,100429.88
2024-01-05T23:21:09.497Z,100436.53
2024-01-05T23:23:38.239Z,100439.31
2024-01-05T23:26:14.223Z,100444.53
2024-01-05T23:28:42.337Z,100438.53
2024-01-05T23:31:10.103Z,100440.84
2024-01-05T23:33:38.168Z,100447.72
2024-01-05T23:36:06.188Z,100448.81
2024-01-05T23:38:33.934Z,100456.09
2024-01-05T23:41:01.624Z,100460.44
2024-01-05T23:43:29.337Z,100460.50
2024-01-05T23:45:57.245Z,100467.28
2024-01-05T23:48:25.281Z,100473.13
2024-01-05T23:50:53.007Z,100469.69
2024-01-05T23:53:20.726Z,100469.00
2024-01-05T23:55:49.042Z,100467.50
2024-01-05T23:58:16.769Z,100475.97
